sensor_id;sensor_type;location;lat;lon;timestamp;temperature;humidity
4103;DHT22;2065;49.790;9.620;2023-06-24T00:01:39;22.30;57.00
4103;DHT22;2065;49.790;9.620;2023-06-24T00:04:06;22.30;56.80
4103;DHT22;2065;49.790;9.620;2023-06-24T00:06:35;22.40;57.00
4103;DHT22;2065;49.790;9.620;2023-06-24T00:09:02;22.10;57.60
4103;DHT22;2065;49.790;9.620;2023-06-24T00:11:29;22.10;57.80
4103;DHT22;2065;49.790;9.620;2023-06-24T00:13:57;22.10;57.30
4103;DHT22;2065;49.790;9.620;2023-06-24T00:16:24;22.20;57.10
4103;DHT22;2065;49.790;9.620;2023-06-24T00:18:53;22.20;57.00
4103;DHT22;2065;49.790;9.620;2023-06-24T00:21:24;22.20;57.30
4103;DHT22;2065;49.790;9.620;2023-06-24T00:23:57;22.20;57.40
4103;DHT22;2065;49.790;9.620;2023-06-24T00:26:24;22.20;57.00
4103;DHT22;2065;49.790;9.620;2023-06-24T00:28:51;22.20;56.60
4103;DHT22;2065;49.790;9.620;2023-06-24T00:31:19;22.20;56.70
4103;DHT22;2065;49.790;9.620;2023-06-24T00:33:47;22.20;56.70
4103;DHT22;2065;49.790;9.620;2023-06-24T00:36:16;22.20;56.70
4103;DHT22;2065;49.790;9.620;2023-06-24T00:38:43;22.20;56.60
4103;DHT22;2065;49.790;9.620;2023-06-24T00:41:11;22.20;56.90
4103;DHT22;2065;49.790;9.620;2023-06-24T00:43:38;22.20;57.20
4103;DHT22;2065;49.790;9.620;2023-06-24T00:46:05;22.10;57.40
4103;DHT22;2065;49.790;9.620;2023-06-24T00:48:33;22.10;57.20
4103;DHT22;2065;49.790;9.620;2023-06-24T00:51:00;22.10;57.00
4103;DHT22;2065;49.790;9.620;2023-06-24T00:53:27;22.10;56.50
4103;DHT22;2065;49.790;9.620;2023-06-24T00:55:55;22.10;56.40
4103;DHT22;2065;49.790;9.620;2023-06-24T00:58:40;22.10;56.20
4103;DHT22;2065;49.790;9.620;2023-06-24T01:01:09;22.00;56.20
4103;DHT22;2065;49.790;9.620;2023-06-24T01:03:37;22.00;56.40
4103;DHT22;2065;49.790;9.620;2023-06-24T01:06:05;21.90;56.40
4103;DHT22;2065;49.790;9.620;2023-06-24T01:08:32;22.00;56.70
4103;DHT22;2065;49.790;9.620;2023-06-24T01:11:00;22.00;56.90
4103;DHT22;2065;49.790;9.620;2023-06-24T01:13:27;21.90;56.50
4103;DHT22;2065;49.790;9.620;2023-06-24T01:15:58;21.90;56.50
4103;DHT22;2065;49.790;9.620;2023-06-24T01:18:30;21.90;56.60
4103;DHT22;2065;49.790;9.620;2023-06-24T01:21:04;21.80;56.60
4103;DHT22;2065;49.790;9.620;2023-06-24T01:26:57;21.80;56.70
4103;DHT22;2065;49.790;9.620;2023-06-24T01:29:52;21.80;56.70
4103;DHT22;2065;49.790;9.620;2023-06-24T01:32:26;21.80;56.70
4103;DHT22;2065;49.790;9.620;2023-06-24T01:34:58;21.70;57.40
4103;DHT22;2065;49.790;9.620;2023-06-24T01:37:29;21.70;57.40
4103;DHT22;2065;49.790;9.620;2023-06-24T01:40:04;21.70;57.80
4103;DHT22;2065;49.790;9.620;2023-06-24T01:42:37;21.80;58.10
4103;DHT22;2065;49.790;9.620;2023-06-24T01:45:08;21.80;57.90
4103;DHT22;2065;49.790;9.620;2023-06-24T01:47:38;21.80;57.70
4103;DHT22;2065;49.790;9.620;2023-06-24T01:50:10;21.70;57.70
4103;DHT22;2065;49.790;9.620;2023-06-24T01:52:38;21.70;57.80
4103;DHT22;2065;49.790;9.620;2023-06-24T01:55:10;21.70;58.00
4103;DHT22;2065;49.790;9.620;2023-06-24T01:57:40;21.70;58.30
4103;DHT22;2065;49.790;9.620;2023-06-24T02:00:10;21.70;58.20
4103;DHT22;2065;49.790;9.620;2023-06-24T02:02:51;21.70;58.40
4103;DHT22;2065;49.790;9.620;2023-06-24T02:05:20;21.70;58.50
4103;DHT22;2065;49.790;9.620;2023-06-24T02:07:49;21.70;58.40
4103;DHT22;2065;49.790;9.620;2023-06-24T02:10:19;21.60;58.70
4103;DHT22;2065;49.790;9.620;2023-06-24T02:12:49;21.60;59.20
4103;DHT22;2065;49.790;9.620;2023-06-24T02:15:18;21.60;59.40
4103;DHT22;2065;49.790;9.620;2023-06-24T02:17:46;21.50;58.90
4103;DHT22;2065;49.790;9.620;2023-06-24T02:20:18;21.50;59.30
4103;DHT22;2065;49.790;9.620;2023-06-24T02:22:47;21.50;59.60
4103;DHT22;2065;49.790;9.620;2023-06-24T02:25:15;21.40;59.90
4103;DHT22;2065;49.790;9.620;2023-06-24T02:27:42;21.50;59.90
4103;DHT22;2065;49.790;9.620;2023-06-24T02:30:11;21.50;59.40
4103;DHT22;2065;49.790;9.620;2023-06-24T02:32:38;21.40;58.80
4103;DHT22;2065;49.790;9.620;2023-06-24T02:35:06;21.10;59.00
4103;DHT22;2065;49.790;9.620;2023-06-24T02:37:35;20.90;58.80
4103;DHT22;2065;49.790;9.620;2023-06-24T02:40:02;20.80;58.80
4103;DHT22;2065;49.790;9.620;2023-06-24T02:42:37;20.90;58.50
4103;DHT22;2065;49.790;9.620;2023-06-24T02:45:05;21.00;58.40
4103;DHT22;2065;49.790;9.620;2023-06-24T02:47:33;21.10;58.40
4103;DHT22;2065;49.790;9.620;2023-06-24T02:50:03;21.10;58.50
4103;DHT22;2065;49.790;9.620;2023-06-24T02:52:32;21.00;58.90
4103;DHT22;2065;49.790;9.620;2023-06-24T02:55:00;20.30;60.30
4103;DHT22;2065;49.790;9.620;2023-06-24T02:57:53;20.30;60.40
4103;DHT22;2065;49.790;9.620;2023-06-24T03:00:43;20.00;61.90
4103;DHT22;2065;49.790;9.620;2023-06-24T03:03:30;20.10;62.50
4103;DHT22;2065;49.790;9.620;2023-06-24T03:05:58;20.10;62.50
4103;DHT22;2065;49.790;9.620;2023-06-24T03:08:29;20.10;61.90
4103;DHT22;2065;49.790;9.620;2023-06-24T03:10:58;20.20;62.00
4103;DHT22;2065;49.790;9.620;2023-06-24T03:13:28;20.30;62.20
4103;DHT22;2065;49.790;9.620;2023-06-24T03:16:16;20.50;61.60
4103;DHT22;2065;49.790;9.620;2023-06-24T03:19:06;20.60;61.10
4103;DHT22;2065;49.790;9.620;2023-06-24T03:21:34;20.70;61.20
4103;DHT22;2065;49.790;9.620;2023-06-24T03:24:07;20.80;61.50
4103;DHT22;2065;49.790;9.620;2023-06-24T03:26:38;20.90;61.60
4103;DHT22;2065;49.790;9.620;2023-06-24T03:29:08;20.90;61.80
4103;DHT22;2065;49.790;9.620;2023-06-24T03:31:41;21.00;61.60
4103;DHT22;2065;49.790;9.620;2023-06-24T03:34:10;20.90;62.00
4103;DHT22;2065;49.790;9.620;2023-06-24T03:36:37;20.80;62.40
4103;DHT22;2065;49.790;9.620;2023-06-24T03:39:06;20.80;62.70
4103;DHT22;2065;49.790;9.620;2023-06-24T03:41:33;20.90;62.00
4103;DHT22;2065;49.790;9.620;2023-06-24T03:44:02;21.00;62.10
4103;DHT22;2065;49.790;9.620;2023-06-24T03:46:29;21.00;61.90
4103;DHT22;2065;49.790;9.620;2023-06-24T03:48:59;21.10;61.80
4103;DHT22;2065;49.790;9.620;2023-06-24T03:51:27;21.20;61.50
4103;DHT22;2065;49.790;9.620;2023-06-24T03:53:54;21.20;61.10
4103;DHT22;2065;49.790;9.620;2023-06-24T03:56:22;21.20;61.00
4103;DHT22;2065;49.790;9.620;2023-06-24T03:58:49;21.30;60.80
4103;DHT22;2065;49.790;9.620;2023-06-24T04:01:18;21.30;60.20
4103;DHT22;2065;49.790;9.620;2023-06-24T04:03:45;21.30;60.40
4103;DHT22;2065;49.790;9.620;2023-06-24T04:06:12;21.20;60.80
4103;DHT22;2065;49.790;9.620;2023-06-24T04:08:40;21.20;60.80
4103;DHT22;2065;49.790;9.620;2023-06-24T04:11:09;21.10;60.90
4103;DHT22;2065;49.790;9.620;2023-06-24T04:13:37;21.00;61.30
4103;DHT22;2065;49.790;9.620;2023-06-24T04:16:05;20.90;61.00
4103;DHT22;2065;49.790;9.620;2023-06-24T04:18:34;20.80;61.30
4103;DHT22;2065;49.790;9.620;2023-06-24T04:21:05;20.60;61.90
4103;DHT22;2065;49.790;9.620;2023-06-24T04:23:32;20.60;62.00
4103;DHT22;2065;49.790;9.620;2023-06-24T04:25:59;20.60;63.00
4103;DHT22;2065;49.790;9.620;2023-06-24T04:28:26;20.70;62.10
4103;DHT22;2065;49.790;9.620;2023-06-24T04:30:55;20.80;62.00
4103;DHT22;2065;49.790;9.620;2023-06-24T04:33:22;20.70;62.00
4103;DHT22;2065;49.790;9.620;2023-06-24T04:35:51;20.80;61.90
4103;DHT22;2065;49.790;9.620;2023-06-24T04:38:19;20.70;61.50
4103;DHT22;2065;49.790;9.620;2023-06-24T04:40:47;20.80;61.40
4103;DHT22;2065;49.790;9.620;2023-06-24T04:43:14;20.80;61.60
4103;DHT22;2065;49.790;9.620;2023-06-24T04:45:41;20.90;61.90
4103;DHT22;2065;49.790;9.620;2023-06-24T04:48:08;20.90;60.90
4103;DHT22;2065;49.790;9.620;2023-06-24T04:50:35;21.00;62.00
4103;DHT22;2065;49.790;9.620;2023-06-24T04:53:04;21.00;61.60
4103;DHT22;2065;49.790;9.620;2023-06-24T04:55:31;21.00;62.00
4103;DHT22;2065;49.790;9.620;2023-06-24T04:57:58;21.20;61.40
4103;DHT22;2065;49.790;9.620;2023-06-24T05:00:25;21.30;60.30
4103;DHT22;2065;49.790;9.620;2023-06-24T05:02:52;21.40;60.10
4103;DHT22;2065;49.790;9.620;2023-06-24T05:05:19;21.40;60.30
4103;DHT22;2065;49.790;9.620;2023-06-24T05:07:46;21.50;60.30
4103;DHT22;2065;49.790;9.620;2023-06-24T05:10:15;21.40;61.10
4103;DHT22;2065;49.790;9.620;2023-06-24T05:12:42;21.50;59.90
4103;DHT22;2065;49.790;9.620;2023-06-24T05:15:10;21.60;59.90
4103;DHT22;2065;49.790;9.620;2023-06-24T05:17:37;21.60;59.70
4103;DHT22;2065;49.790;9.620;2023-06-24T05:20:04;21.70;59.60
4103;DHT22;2065;49.790;9.620;2023-06-24T05:22:32;21.70;59.70
4103;DHT22;2065;49.790;9.620;2023-06-24T05:24:59;21.70;59.20
4103;DHT22;2065;49.790;9.620;2023-06-24T05:27:27;21.50;59.20
4103;DHT22;2065;49.790;9.620;2023-06-24T05:29:54;21.60;59.40
4103;DHT22;2065;49.790;9.620;2023-06-24T05:32:21;21.50;59.50
4103;DHT22;2065;49.790;9.620;2023-06-24T05:34:48;21.60;59.00
4103;DHT22;2065;49.790;9.620;2023-06-24T05:37:15;21.70;59.60
4103;DHT22;2065;49.790;9.620;2023-06-24T05:39:42;21.80;59.40
4103;DHT22;2065;49.790;9.620;2023-06-24T05:42:09;21.50;59.70
4103;DHT22;2065;49.790;9.620;2023-06-24T05:44:37;21.30;60.20
4103;DHT22;2065;49.790;9.620;2023-06-24T05:47:05;21.40;60.70
4103;DHT22;2065;49.790;9.620;2023-06-24T05:49:32;21.50;60.20
4103;DHT22;2065;49.790;9.620;2023-06-24T05:51:59;21.70;59.90
4103;DHT22;2065;49.790;9.620;2023-06-24T05:54:26;21.70;59.10
4103;DHT22;2065;49.790;9.620;2023-06-24T05:56:53;21.50;59.90
4103;DHT22;2065;49.790;9.620;2023-06-24T05:59:20;21.40;60.40
4103;DHT22;2065;49.790;9.620;2023-06-24T06:01:48;21.60;60.10
4103;DHT22;2065;49.790;9.620;2023-06-24T06:04:15;21.80;59.70
4103;DHT22;2065;49.790;9.620;2023-06-24T06:06:42;22.00;58.90
4103;DHT22;2065;49.790;9.620;2023-06-24T06:09:09;22.10;58.60
4103;DHT22;2065;49.790;9.620;2023-06-24T06:11:36;21.90;58.80
4103;DHT22;2065;49.790;9.620;2023-06-24T06:14:02;22.00;59.00
4103;DHT22;2065;49.790;9.620;2023-06-24T06:16:29;21.80;59.30
4103;DHT22;2065;49.790;9.620;2023-06-24T06:18:58;21.80;59.80
4103;DHT22;2065;49.790;9.620;2023-06-24T06:21:25;21.80;59.40
4103;DHT22;2065;49.790;9.620;2023-06-24T06:23:52;21.80;59.50
4103;DHT22;2065;49.790;9.620;2023-06-24T06:26:19;22.10;59.30
4103;DHT22;2065;49.790;9.620;2023-06-24T06:28:46;22.30;58.60
4103;DHT22;2065;49.790;9.620;2023-06-24T06:31:14;22.40;58.50
4103;DHT22;2065;49.790;9.620;2023-06-24T06:33:41;22.60;58.00
4103;DHT22;2065;49.790;9.620;2023-06-24T06:36:09;22.80;57.70
4103;DHT22;2065;49.790;9.620;2023-06-24T06:38:36;23.00;57.00
4103;DHT22;2065;49.790;9.620;2023-06-24T06:41:03;23.20;56.70
4103;DHT22;2065;49.790;9.620;2023-06-24T06:43:30;23.40;56.80
4103;DHT22;2065;49.790;9.620;2023-06-24T06:45:57;23.60;56.60
4103;DHT22;2065;49.790;9.620;2023-06-24T06:48:24;23.70;55.80
4103;DHT22;2065;49.790;9.620;2023-06-24T06:50:51;23.60;56.40
4103;DHT22;2065;49.790;9.620;2023-06-24T06:53:20;23.80;56.30
4103;DHT22;2065;49.790;9.620;2023-06-24T06:55:47;23.80;56.10
4103;DHT22;2065;49.790;9.620;2023-06-24T06:58:14;24.00;56.40
4103;DHT22;2065;49.790;9.620;2023-06-24T07:00:41;24.20;56.00
4103;DHT22;2065;49.790;9.620;2023-06-24T07:03:08;24.30;55.60
4103;DHT22;2065;49.790;9.620;2023-06-24T07:05:35;24.20;55.80
4103;DHT22;2065;49.790;9.620;2023-06-24T07:08:02;24.40;56.00
4103;DHT22;2065;49.790;9.620;2023-06-24T07:10:31;24.50;55.70
4103;DHT22;2065;49.790;9.620;2023-06-24T07:12:58;24.50;55.40
4103;DHT22;2065;49.790;9.620;2023-06-24T07:15:25;24.20;55.40
4103;DHT22;2065;49.790;9.620;2023-06-24T07:17:52;24.30;56.00
4103;DHT22;2065;49.790;9.620;2023-06-24T07:20:20;24.40;55.60
4103;DHT22;2065;49.790;9.620;2023-06-24T07:22:48;24.20;55.60
4103;DHT22;2065;49.790;9.620;2023-06-24T07:25:15;24.20;55.90
4103;DHT22;2065;49.790;9.620;2023-06-24T07:27:43;24.20;56.00
4103;DHT22;2065;49.790;9.620;2023-06-24T07:30:10;24.50;55.20
4103;DHT22;2065;49.790;9.620;2023-06-24T07:32:37;24.80;55.50
4103;DHT22;2065;49.790;9.620;2023-06-24T07:35:05;24.80;54.10
4103;DHT22;2065;49.790;9.620;2023-06-24T07:37:34;25.00;54.50
4103;DHT22;2065;49.790;9.620;2023-06-24T07:40:01;25.00;53.70
4103;DHT22;2065;49.790;9.620;2023-06-24T07:42:29;25.10;53.20
4103;DHT22;2065;49.790;9.620;2023-06-24T07:44:57;25.50;52.70
4103;DHT22;2065;49.790;9.620;2023-06-24T07:47:24;25.70;52.70
4103;DHT22;2065;49.790;9.620;2023-06-24T07:49:51;25.80;52.20
4103;DHT22;2065;49.790;9.620;2023-06-24T07:52:18;26.00;51.70
4103;DHT22;2065;49.790;9.620;2023-06-24T07:54:45;25.90;51.20
4103;DHT22;2065;49.790;9.620;2023-06-24T07:57:12;26.00;51.60
4103;DHT22;2065;49.790;9.620;2023-06-24T07:59:39;26.00;50.60
4103;DHT22;2065;49.790;9.620;2023-06-24T08:02:07;25.90;51.30
4103;DHT22;2065;49.790;9.620;2023-06-24T08:04:34;26.20;50.90
4103;DHT22;2065;49.790;9.620;2023-06-24T08:07:02;26.20;50.50
4103;DHT22;2065;49.790;9.620;2023-06-24T08:09:30;26.30;49.90
4103;DHT22;2065;49.790;9.620;2023-06-24T08:11:57;26.40;49.30
4103;DHT22;2065;49.790;9.620;2023-06-24T08:14:24;26.60;49.10
4103;DHT22;2065;49.790;9.620;2023-06-24T08:16:51;26.90;49.40
4103;DHT22;2065;49.790;9.620;2023-06-24T08:19:19;27.20;49.80
4103;DHT22;2065;49.790;9.620;2023-06-24T08:21:46;27.50;50.00
4103;DHT22;2065;49.790;9.620;2023-06-24T08:24:13;27.60;47.90
4103;DHT22;2065;49.790;9.620;2023-06-24T08:26:40;27.80;47.20
4103;DHT22;2065;49.790;9.620;2023-06-24T08:29:07;27.60;45.00
4103;DHT22;2065;49.790;9.620;2023-06-24T08:31:34;27.60;45.40
4103;DHT22;2065;49.790;9.620;2023-06-24T08:34:01;27.60;44.40
4103;DHT22;2065;49.790;9.620;2023-06-24T08:36:30;27.70;44.00
4103;DHT22;2065;49.790;9.620;2023-06-24T08:38:57;27.90;44.40
4103;DHT22;2065;49.790;9.620;2023-06-24T08:41:24;28.00;42.50
4103;DHT22;2065;49.790;9.620;2023-06-24T08:43:52;28.00;43.30
4103;DHT22;2065;49.790;9.620;2023-06-24T08:46:19;28.00;41.70
4103;DHT22;2065;49.790;9.620;2023-06-24T08:48:48;28.10;42.20
4103;DHT22;2065;49.790;9.620;2023-06-24T08:51:18;28.30;41.10
4103;DHT22;2065;49.790;9.620;2023-06-24T08:53:48;28.50;40.50
4103;DHT22;2065;49.790;9.620;2023-06-24T08:56:16;28.70;40.10
4103;DHT22;2065;49.790;9.620;2023-06-24T08:58:44;28.60;39.60
4103;DHT22;2065;49.790;9.620;2023-06-24T09:01:11;28.40;40.30
4103;DHT22;2065;49.790;9.620;2023-06-24T09:03:39;28.40;39.40
4103;DHT22;2065;49.790;9.620;2023-06-24T09:06:06;28.70;39.30
4103;DHT22;2065;49.790;9.620;2023-06-24T09:08:33;29.00;40.00
4103;DHT22;2065;49.790;9.620;2023-06-24T09:11:02;29.20;39.00
4103;DHT22;2065;49.790;9.620;2023-06-24T09:13:34;29.40;37.50
4103;DHT22;2065;49.790;9.620;2023-06-24T09:16:11;29.40;33.80
4103;DHT22;2065;49.790;9.620;2023-06-24T09:18:38;29.60;35.30
4103;DHT22;2065;49.790;9.620;2023-06-24T09:21:05;29.70;35.30
4103;DHT22;2065;49.790;9.620;2023-06-24T09:23:36;29.90;36.10
4103;DHT22;2065;49.790;9.620;2023-06-24T09:26:05;29.90;36.00
4103;DHT22;2065;49.790;9.620;2023-06-24T09:28:36;29.90;35.30
4103;DHT22;2065;49.790;9.620;2023-06-24T09:31:06;29.90;36.90
4103;DHT22;2065;49.790;9.620;2023-06-24T09:33:34;29.90;35.20
4103;DHT22;2065;49.790;9.620;2023-06-24T09:36:02;29.90;37.40
4103;DHT22;2065;49.790;9.620;2023-06-24T09:38:34;30.00;36.50
4103;DHT22;2065;49.790;9.620;2023-06-24T09:41:04;30.30;36.60
4103;DHT22;2065;49.790;9.620;2023-06-24T09:43:32;30.50;36.60
4103;DHT22;2065;49.790;9.620;2023-06-24T09:46:01;30.60;33.80
4103;DHT22;2065;49.790;9.620;2023-06-24T09:48:28;30.50;36.50
4103;DHT22;2065;49.790;9.620;2023-06-24T09:50:58;30.80;34.40
4103;DHT22;2065;49.790;9.620;2023-06-24T09:53:25;31.00;37.00
4103;DHT22;2065;49.790;9.620;2023-06-24T09:55:53;31.40;35.30
4103;DHT22;2065;49.790;9.620;2023-06-24T09:58:22;31.60;33.90
4103;DHT22;2065;49.790;9.620;2023-06-24T10:00:50;31.60;34.60
4103;DHT22;2065;49.790;9.620;2023-06-24T10:03:18;31.80;35.50
4103;DHT22;2065;49.790;9.620;2023-06-24T10:05:45;32.20;36.00
4103;DHT22;2065;49.790;9.620;2023-06-24T10:08:13;32.30;33.90
4103;DHT22;2065;49.790;9.620;2023-06-24T10:10:40;32.10;33.70
4103;DHT22;2065;49.790;9.620;2023-06-24T10:13:07;32.10;34.10
4103;DHT22;2065;49.790;9.620;2023-06-24T10:15:36;32.20;34.60
4103;DHT22;2065;49.790;9.620;2023-06-24T10:18:33;32.20;33.90
4103;DHT22;2065;49.790;9.620;2023-06-24T10:21:00;31.90;33.10
4103;DHT22;2065;49.790;9.620;2023-06-24T10:23:33;32.20;33.40
4103;DHT22;2065;49.790;9.620;2023-06-24T10:26:00;32.30;34.40
4103;DHT22;2065;49.790;9.620;2023-06-24T10:31:52;32.70;32.90
4103;DHT22;2065;49.790;9.620;2023-06-24T10:34:34;32.70;32.10
4103;DHT22;2065;49.790;9.620;2023-06-24T10:37:02;32.80;32.40
4103;DHT22;2065;49.790;9.620;2023-06-24T10:39:40;33.00;33.60
4103;DHT22;2065;49.790;9.620;2023-06-24T10:42:27;33.00;32.50
4103;DHT22;2065;49.790;9.620;2023-06-24T10:44:55;33.00;32.60
4103;DHT22;2065;49.790;9.620;2023-06-24T10:47:24;32.50;32.10
4103;DHT22;2065;49.790;9.620;2023-06-24T10:49:52;32.40;33.50
4103;DHT22;2065;49.790;9.620;2023-06-24T10:52:20;32.60;32.30
4103;DHT22;2065;49.790;9.620;2023-06-24T10:54:47;32.60;31.50
4103;DHT22;2065;49.790;9.620;2023-06-24T10:57:14;32.50;32.20
4103;DHT22;2065;49.790;9.620;2023-06-24T10:59:42;32.30;32.90
4103;DHT22;2065;49.790;9.620;2023-06-24T11:02:12;32.40;32.90
4103;DHT22;2065;49.790;9.620;2023-06-24T11:04:45;32.50;32.60
4103;DHT22;2065;49.790;9.620;2023-06-24T11:07:12;32.70;32.10
4103;DHT22;2065;49.790;9.620;2023-06-24T11:09:40;33.00;32.20
4103;DHT22;2065;49.790;9.620;2023-06-24T11:12:09;33.20;33.50
4103;DHT22;2065;49.790;9.620;2023-06-24T11:14:38;33.30;32.90
4103;DHT22;2065;49.790;9.620;2023-06-24T11:17:05;32.90;31.30
4103;DHT22;2065;49.790;9.620;2023-06-24T11:19:33;31.90;33.30
4103;DHT22;2065;49.790;9.620;2023-06-24T11:22:06;31.50;33.30
4103;DHT22;2065;49.790;9.620;2023-06-24T11:24:34;31.40;33.70
4103;DHT22;2065;49.790;9.620;2023-06-24T11:27:03;31.70;33.50
4103;DHT22;2065;49.790;9.620;2023-06-24T11:29:32;32.10;34.70
4103;DHT22;2065;49.790;9.620;2023-06-24T11:31:59;32.70;32.40
4103;DHT22;2065;49.790;9.620;2023-06-24T11:34:26;33.20;30.80
4103;DHT22;2065;49.790;9.620;2023-06-24T11:36:53;33.50;30.70
4103;DHT22;2065;49.790;9.620;2023-06-24T11:39:22;33.50;31.20
4103;DHT22;2065;49.790;9.620;2023-06-24T11:41:50;33.40;31.50
4103;DHT22;2065;49.790;9.620;2023-06-24T11:44:20;33.50;29.90
4103;DHT22;2065;49.790;9.620;2023-06-24T11:46:48;33.40;31.00
4103;DHT22;2065;49.790;9.620;2023-06-24T11:49:15;33.20;31.30
4103;DHT22;2065;49.790;9.620;2023-06-24T11:51:46;32.90;31.70
4103;DHT22;2065;49.790;9.620;2023-06-24T11:54:15;32.70;31.10
4103;DHT22;2065;49.790;9.620;2023-06-24T11:56:48;32.70;31.10
4103;DHT22;2065;49.790;9.620;2023-06-24T11:59:17;32.60;30.90
4103;DHT22;2065;49.790;9.620;2023-06-24T12:01:44;32.60;32.00
4103;DHT22;2065;49.790;9.620;2023-06-24T12:04:12;32.80;30.40
4103;DHT22;2065;49.790;9.620;2023-06-24T12:06:40;32.80;31.10
4103;DHT22;2065;49.790;9.620;2023-06-24T12:09:07;32.50;31.30
4103;DHT22;2065;49.790;9.620;2023-06-24T12:11:35;32.20;32.20
4103;DHT22;2065;49.790;9.620;2023-06-24T12:14:05;32.40;31.30
4103;DHT22;2065;49.790;9.620;2023-06-24T12:16:32;32.70;32.50
4103;DHT22;2065;49.790;9.620;2023-06-24T12:18:58;32.90;33.20
4103;DHT22;2065;49.790;9.620;2023-06-24T12:21:25;32.70;31.90
4103;DHT22;2065;49.790;9.620;2023-06-24T12:23:52;32.60;31.80
4103;DHT22;2065;49.790;9.620;2023-06-24T12:26:19;32.60;31.60
4103;DHT22;2065;49.790;9.620;2023-06-24T12:28:46;32.70;31.70
4103;DHT22;2065;49.790;9.620;2023-06-24T12:31:14;32.70;32.80
4103;DHT22;2065;49.790;9.620;2023-06-24T12:33:41;32.70;32.40
4103;DHT22;2065;49.790;9.620;2023-06-24T12:36:08;32.30;31.00
4103;DHT22;2065;49.790;9.620;2023-06-24T12:38:35;32.20;32.00
4103;DHT22;2065;49.790;9.620;2023-06-24T12:41:02;32.30;32.50
4103;DHT22;2065;49.790;9.620;2023-06-24T12:43:29;32.60;32.10
4103;DHT22;2065;49.790;9.620;2023-06-24T12:45:56;32.90;29.60
4103;DHT22;2065;49.790;9.620;2023-06-24T12:48:25;32.90;30.80
4103;DHT22;2065;49.790;9.620;2023-06-24T12:50:52;33.20;30.50
4103;DHT22;2065;49.790;9.620;2023-06-24T12:53:19;32.80;31.30
4103;DHT22;2065;49.790;9.620;2023-06-24T12:55:46;32.90;30.90
4103;DHT22;2065;49.790;9.620;2023-06-24T12:58:13;32.80;30.70
4103;DHT22;2065;49.790;9.620;2023-06-24T13:00:40;32.50;31.00
4103;DHT22;2065;49.790;9.620;2023-06-24T13:03:07;32.50;31.50
4103;DHT22;2065;49.790;9.620;2023-06-24T13:05:36;32.70;32.40
4103;DHT22;2065;49.790;9.620;2023-06-24T13:08:03;32.80;31.30
4103;DHT22;2065;49.790;9.620;2023-06-24T13:10:32;32.90;31.40
4103;DHT22;2065;49.790;9.620;2023-06-24T13:12:59;32.80;30.60
4103;DHT22;2065;49.790;9.620;2023-06-24T13:15:26;32.70;31.00
4103;DHT22;2065;49.790;9.620;2023-06-24T13:17:53;32.80;31.10
4103;DHT22;2065;49.790;9.620;2023-06-24T13:20:20;32.80;31.30
4103;DHT22;2065;49.790;9.620;2023-06-24T13:22:48;32.80;31.20
4103;DHT22;2065;49.790;9.620;2023-06-24T13:25:15;33.20;32.30
4103;DHT22;2065;49.790;9.620;2023-06-24T13:27:43;33.40;31.30
4103;DHT22;2065;49.790;9.620;2023-06-24T13:30:11;33.50;30.80
4103;DHT22;2065;49.790;9.620;2023-06-24T13:32:40;33.10;30.10
4103;DHT22;2065;49.790;9.620;2023-06-24T13:35:08;33.00;31.70
4103;DHT22;2065;49.790;9.620;2023-06-24T13:37:35;32.70;31.20
4103;DHT22;2065;49.790;9.620;2023-06-24T13:40:06;32.60;30.40
4103;DHT22;2065;49.790;9.620;2023-06-24T13:42:33;32.50;31.20
4103;DHT22;2065;49.790;9.620;2023-06-24T13:45:01;32.70;31.60
4103;DHT22;2065;49.790;9.620;2023-06-24T13:47:28;33.10;31.40
4103;DHT22;2065;49.790;9.620;2023-06-24T13:49:54;33.10;30.00
4103;DHT22;2065;49.790;9.620;2023-06-24T13:52:22;33.20;31.50
4103;DHT22;2065;49.790;9.620;2023-06-24T13:54:49;33.20;32.00
4103;DHT22;2065;49.790;9.620;2023-06-24T13:57:18;33.20;31.20
4103;DHT22;2065;49.790;9.620;2023-06-24T13:59:45;33.30;31.80
4103;DHT22;2065;49.790;9.620;2023-06-24T14:02:11;33.40;32.20
4103;DHT22;2065;49.790;9.620;2023-06-24T14:04:38;33.60;31.70
4103;DHT22;2065;49.790;9.620;2023-06-24T14:07:06;33.80;30.40
4103;DHT22;2065;49.790;9.620;2023-06-24T14:09:33;33.60;29.00
4103;DHT22;2065;49.790;9.620;2023-06-24T14:12:00;33.40;30.00
4103;DHT22;2065;49.790;9.620;2023-06-24T14:14:29;33.30;29.10
4103;DHT22;2065;49.790;9.620;2023-06-24T14:16:56;33.30;29.60
4103;DHT22;2065;49.790;9.620;2023-06-24T14:19:23;33.00;29.10
4103;DHT22;2065;49.790;9.620;2023-06-24T14:21:50;32.60;29.50
4103;DHT22;2065;49.790;9.620;2023-06-24T14:24:17;32.60;29.90
4103;DHT22;2065;49.790;9.620;2023-06-24T14:26:44;32.80;30.50
4103;DHT22;2065;49.790;9.620;2023-06-24T14:29:15;32.90;29.40
4103;DHT22;2065;49.790;9.620;2023-06-24T14:31:44;32.80;29.40
4103;DHT22;2065;49.790;9.620;2023-06-24T14:34:10;32.60;30.30
4103;DHT22;2065;49.790;9.620;2023-06-24T14:36:38;32.60;30.70
4103;DHT22;2065;49.790;9.620;2023-06-24T14:39:05;32.60;30.30
4103;DHT22;2065;49.790;9.620;2023-06-24T14:41:32;32.80;31.00
4103;DHT22;2065;49.790;9.620;2023-06-24T14:43:58;32.80;30.80
4103;DHT22;2065;49.790;9.620;2023-06-24T14:46:25;32.60;30.00
4103;DHT22;2065;49.790;9.620;2023-06-24T14:48:54;32.60;30.30
4103;DHT22;2065;49.790;9.620;2023-06-24T14:51:21;32.80;30.80
4103;DHT22;2065;49.790;9.620;2023-06-24T14:53:48;33.00;30.00
4103;DHT22;2065;49.790;9.620;2023-06-24T14:56:14;33.20;30.00
4103;DHT22;2065;49.790;9.620;2023-06-24T14:58:41;32.80;29.70
4103;DHT22;2065;49.790;9.620;2023-06-24T15:01:08;32.90;29.90
4103;DHT22;2065;49.790;9.620;2023-06-24T15:03:35;33.00;29.70
4103;DHT22;2065;49.790;9.620;2023-06-24T15:06:04;33.10;29.50
4103;DHT22;2065;49.790;9.620;2023-06-24T15:08:31;33.30;29.30
4103;DHT22;2065;49.790;9.620;2023-06-24T15:10:58;33.50;29.40
4103;DHT22;2065;49.790;9.620;2023-06-24T15:13:25;33.10;28.90
4103;DHT22;2065;49.790;9.620;2023-06-24T15:15:51;33.10;29.80
4103;DHT22;2065;49.790;9.620;2023-06-24T15:18:21;33.20;29.50
4103;DHT22;2065;49.790;9.620;2023-06-24T15:20:48;33.50;29.50
4103;DHT22;2065;49.790;9.620;2023-06-24T15:23:17;33.50;29.30
4103;DHT22;2065;49.790;9.620;2023-06-24T15:25:44;33.50;29.60
4103;DHT22;2065;49.790;9.620;2023-06-24T15:28:10;33.50;29.00
4103;DHT22;2065;49.790;9.620;2023-06-24T15:30:37;33.50;29.90
4103;DHT22;2065;49.790;9.620;2023-06-24T15:33:04;33.50;29.00
4103;DHT22;2065;49.790;9.620;2023-06-24T15:35:31;33.50;29.00
4103;DHT22;2065;49.790;9.620;2023-06-24T15:37:58;33.10;27.70
4103;DHT22;2065;49.790;9.620;2023-06-24T15:40:26;33.30;29.30
4103;DHT22;2065;49.790;9.620;2023-06-24T15:42:53;33.20;28.60
4103;DHT22;2065;49.790;9.620;2023-06-24T15:45:20;33.10;29.10
4103;DHT22;2065;49.790;9.620;2023-06-24T15:47:47;33.10;29.10
4103;DHT22;2065;49.790;9.620;2023-06-24T15:50:14;33.00;28.80
4103;DHT22;2065;49.790;9.620;2023-06-24T15:52:42;33.10;28.80
4103;DHT22;2065;49.790;9.620;2023-06-24T15:55:09;33.20;28.50
4103;DHT22;2065;49.790;9.620;2023-06-24T15:57:37;32.90;28.20
4103;DHT22;2065;49.790;9.620;2023-06-24T16:00:05;32.90;28.40
4103;DHT22;2065;49.790;9.620;2023-06-24T16:02:32;32.80;29.00
4103;DHT22;2065;49.790;9.620;2023-06-24T16:04:59;32.90;29.20
4103;DHT22;2065;49.790;9.620;2023-06-24T16:07:31;32.90;29.50
4103;DHT22;2065;49.790;9.620;2023-06-24T16:09:58;32.90;28.50
4103;DHT22;2065;49.790;9.620;2023-06-24T16:12:25;32.70;28.80
4103;DHT22;2065;49.790;9.620;2023-06-24T16:14:53;32.70;28.30
4103;DHT22;2065;49.790;9.620;2023-06-24T16:17:20;32.90;28.90